createdAt,value
2018-04-23T00:00:28.820Z,5.20
2018-04-23T00:02:56.304Z,5.20
2018-04-23T00:05:23.789Z,5.13
2018-04-23T00:07:51.274Z,4.33
2018-04-23T00:10:18.761Z,5.23
2018-04-23T00:12:46.241Z,5.00
2018-04-23T00:15:13.731Z,5.60
2018-04-23T00:17:41.271Z,4.93
2018-04-23T00:20:08.776Z,4.67
2018-04-23T00:22:36.259Z,5.67
2018-04-23T00:25:03.744Z,5.37
2018-04-23T00:27:31.267Z,4.40
2018-04-23T00:29:58.805Z,5.20
2018-04-23T00:32:26.290Z,5.37
2018-04-23T00:34:53.857Z,6.23
2018-04-23T00:37:21.343Z,5.10
2018-04-23T00:39:48.824Z,5.93
2018-04-23T00:42:16.306Z,4.77
2018-04-23T00:44:43.780Z,5.80
2018-04-23T00:47:11.260Z,5.77
2018-04-23T00:49:38.747Z,5.30
2018-04-23T00:52:06.254Z,5.47
2018-04-23T00:54:33.763Z,5.10
2018-04-23T00:57:01.248Z,5.37
2018-04-23T00:59:28.810Z,5.80
2018-04-23T01:01:56.332Z,5.00
2018-04-23T01:04:23.815Z,5.47
2018-04-23T01:06:51.312Z,4.70
2018-04-23T01:09:18.788Z,5.73
2018-04-23T01:11:46.304Z,5.83
2018-04-23T01:14:13.801Z,5.40
2018-04-23T01:16:41.298Z,5.63
2018-04-23T01:19:08.795Z,4.80
2018-04-23T01:21:36.313Z,5.17
2018-04-23T01:24:03.791Z,4.97
2018-04-23T01:26:31.290Z,5.40
2018-04-23T01:28:58.767Z,5.67
2018-04-23T01:31:26.252Z,6.07
2018-04-23T01:33:53.864Z,5.50
2018-04-23T01:36:21.411Z,5.90
2018-04-23T01:38:48.899Z,5.33
2018-04-23T01:41:16.396Z,5.13
2018-04-23T01:43:43.888Z,5.93
2018-04-23T01:46:11.370Z,5.70
2018-04-23T01:48:38.844Z,5.37
2018-04-23T01:51:06.346Z,5.80
2018-04-23T01:53:33.833Z,5.30
2018-04-23T01:56:01.361Z,5.73
2018-04-23T01:58:28.841Z,5.80
2018-04-23T02:00:56.327Z,6.10
2018-04-23T02:03:23.816Z,5.50
2018-04-23T02:05:51.342Z,5.77
2018-04-23T02:08:18.864Z,6.27
2018-04-23T02:10:46.348Z,5.73
2018-04-23T02:13:13.893Z,5.27
2018-04-23T02:15:41.387Z,5.27
2018-04-23T02:18:09.009Z,6.43
2018-04-23T02:20:36.480Z,5.90
2018-04-23T02:23:03.977Z,5.47
2018-04-23T02:25:31.455Z,5.47
2018-04-23T02:27:58.956Z,5.00
2018-04-23T02:30:26.437Z,5.93
2018-04-23T02:32:53.944Z,6.03
2018-04-23T02:35:21.423Z,5.20
2018-04-23T02:37:49.390Z,6.47
2018-04-23T02:40:16.873Z,5.33
2018-04-23T02:42:44.356Z,5.33
2018-04-23T02:45:11.830Z,5.80
2018-04-23T02:47:39.309Z,6.23
2018-04-23T02:50:06.791Z,6.13
2018-04-23T02:52:34.306Z,5.57
2018-04-23T02:55:01.828Z,5.60
2018-04-23T02:57:29.315Z,5.67
2018-04-23T02:59:56.789Z,5.77
2018-04-23T03:02:24.273Z,5.40
2018-04-23T03:04:51.772Z,5.90
2018-04-23T03:07:19.271Z,5.77
2018-04-23T03:09:47.080Z,6.10
2018-04-23T03:12:14.577Z,5.60
2018-04-23T03:14:42.087Z,6.17
2018-04-23T03:17:09.608Z,6.47
2018-04-23T03:19:37.108Z,7.13
2018-04-23T03:22:04.593Z,5.67
2018-04-23T03:24:33.052Z,5.70
2018-04-23T03:27:00.584Z,5.90
2018-04-23T03:29:28.085Z,6.83
2018-04-23T03:31:55.604Z,5.67
2018-04-23T03:34:23.093Z,6.00
2018-04-23T03:36:50.584Z,5.23
2018-04-23T03:39:18.142Z,6.13
2018-04-23T03:41:45.664Z,6.10
2018-04-23T03:44:13.157Z,5.93
2018-04-23T03:46:40.637Z,5.47
2018-04-23T03:49:08.141Z,6.13
2018-04-23T03:51:35.647Z,6.53
2018-04-23T03:54:03.247Z,5.93
2018-04-23T03:56:30.736Z,5.37
2018-04-23T03:58:58.355Z,6.27
2018-04-23T04:01:26.064Z,5.63
2018-04-23T04:03:53.612Z,6.47
2018-04-23T04:06:21.359Z,6.40
2018-04-23T04:08:48.854Z,5.60
2018-04-23T04:11:16.332Z,6.30
2018-04-23T04:13:49.871Z,6.43
2018-04-23T04:16:23.102Z,6.10
2018-04-23T04:18:50.692Z,6.13
2018-04-23T04:21:18.192Z,5.93
2018-04-23T04:23:45.680Z,6.20
2018-04-23T04:26:13.191Z,7.07
2018-04-23T04:28:40.668Z,5.23
2018-04-23T04:31:08.204Z,6.83
2018-04-23T04:33:35.722Z,6.33
2018-04-23T04:36:03.232Z,5.73
2018-04-23T04:38:30.783Z,5.70
2018-04-23T04:40:58.363Z,5.80
2018-04-23T04:43:25.842Z,5.67
2018-04-23T04:45:53.630Z,6.37
2018-04-23T04:48:21.122Z,6.23
2018-04-23T04:50:48.910Z,6.17
2018-04-23T04:53:16.563Z,6.00
2018-04-23T04:55:44.266Z,6.30
2018-04-23T04:58:11.756Z,6.70
2018-04-23T05:00:39.247Z,6.90
2018-04-23T05:03:07.177Z,6.53
2018-04-23T05:05:34.666Z,7.47
2018-04-23T05:08:02.151Z,5.50
2018-04-23T05:10:29.644Z,5.87
2018-04-23T05:12:57.134Z,7.47
2018-04-23T05:15:24.633Z,6.60
2018-04-23T05:17:52.571Z,6.77
2018-04-23T05:20:20.075Z,6.90
2018-04-23T05:22:47.576Z,6.40
2018-04-23T05:25:15.083Z,7.47
2018-04-23T05:27:42.607Z,6.20
2018-04-23T05:30:10.092Z,6.73
2018-04-23T05:32:37.575Z,5.87
2018-04-23T05:35:05.076Z,6.40
2018-04-23T05:37:32.557Z,6.77
2018-04-23T05:40:00.048Z,6.63
2018-04-23T05:42:27.632Z,6.47
2018-04-23T05:44:55.124Z,6.33
2018-04-23T05:47:22.608Z,7.40
2018-04-23T05:49:50.150Z,7.30
2018-04-23T05:52:17.641Z,6.80
2018-04-23T05:54:45.124Z,6.93
2018-04-23T05:57:12.612Z,6.67
2018-04-23T05:59:40.124Z,6.30
2018-04-23T06:02:07.605Z,6.33
2018-04-23T06:04:35.110Z,6.17
2018-04-23T06:07:02.608Z,6.80
2018-04-23T06:09:30.093Z,4.50
2018-04-23T06:11:57.601Z,6.67
2018-04-23T06:14:25.093Z,6.17
2018-04-23T06:16:52.571Z,6.47
2018-04-23T06:19:20.054Z,6.40
2018-04-23T06:21:47.575Z,7.27
2018-04-23T06:24:15.151Z,6.80
2018-04-23T06:26:42.642Z,5.30
2018-04-23T06:29:10.123Z,6.43
2018-04-23T06:31:37.605Z,6.43
2018-04-23T06:34:05.089Z,6.57
2018-04-23T06:36:32.569Z,5.47
2018-04-23T06:39:00.066Z,5.57
2018-04-23T06:41:27.554Z,5.77
2018-04-23T06:43:55.116Z,6.17
2018-04-23T06:46:22.709Z,5.03
2018-04-23T06:48:50.192Z,5.77
2018-04-23T06:51:17.705Z,6.10
2018-04-23T06:53:45.727Z,6.17
2018-04-23T06:56:13.206Z,6.23
2018-04-23T06:58:40.803Z,7.97
2018-04-23T07:01:08.351Z,7.20
2018-04-23T07:03:35.872Z,7.27
2018-04-23T07:06:03.428Z,7.67
2018-04-23T07:08:30.927Z,6.07
2018-04-23T07:10:58.483Z,6.43
2018-04-23T07:13:26.026Z,7.40
2018-04-23T07:15:53.533Z,7.03
2018-04-23T07:18:21.103Z,7.30
2018-04-23T07:20:48.608Z,6.23
2018-04-23T07:23:16.201Z,6.27
2018-04-23T07:25:43.831Z,7.07
2018-04-23T07:28:11.473Z,7.20
2018-04-23T07:30:38.973Z,5.67
2018-04-23T07:33:06.483Z,6.23
2018-04-23T07:35:33.968Z,6.30
2018-04-23T07:38:01.460Z,5.90
2018-04-23T07:40:28.964Z,5.90
2018-04-23T07:42:56.467Z,5.93
2018-04-23T07:45:24.020Z,5.70
2018-04-23T07:47:51.607Z,6.10
2018-04-23T07:50:19.116Z,7.33
2018-04-23T07:52:46.607Z,6.73
2018-04-23T07:55:14.106Z,6.17
2018-04-23T07:57:41.762Z,6.53
2018-04-23T08:00:09.250Z,7.37
2018-04-23T08:02:36.795Z,6.77
2018-04-23T08:05:04.305Z,6.53
2018-04-23T08:07:31.784Z,7.40
2018-04-23T08:09:59.288Z,6.23
2018-04-23T08:12:26.785Z,6.63
2018-04-23T08:14:54.281Z,6.27
2018-04-23T08:17:21.797Z,6.87
2018-04-23T08:19:49.447Z,6.50
2018-04-23T08:22:17.128Z,5.10
2018-04-23T08:24:44.679Z,6.63
2018-04-23T08:27:12.161Z,6.27
2018-04-23T08:29:39.693Z,6.07
2018-04-23T08:32:07.192Z,7.17
2018-04-23T08:34:34.707Z,6.43
2018-04-23T08:37:02.202Z,6.50
2018-04-23T08:39:29.691Z,6.83
2018-04-23T08:41:57.185Z,5.97
2018-04-23T08:44:24.670Z,7.80
2018-04-23T08:46:52.633Z,7.23
2018-04-23T08:49:20.124Z,6.90
2018-04-23T08:51:47.627Z,6.67
2018-04-23T08:54:15.104Z,7.07
2018-04-23T08:56:42.596Z,6.80
2018-04-23T08:59:10.092Z,5.40
2018-04-23T09:01:37.634Z,6.00
2018-04-23T09:04:05.138Z,5.87
2018-04-23T09:06:32.829Z,7.93
2018-04-23T09:09:00.324Z,5.83
2018-04-23T09:11:27.923Z,6.20
2018-04-23T09:13:55.415Z,6.47
2018-04-23T09:16:22.911Z,6.50
2018-04-23T09:18:50.428Z,6.20
2018-04-23T09:21:17.944Z,6.40
2018-04-23T09:23:45.459Z,10.70
2018-04-23T09:26:13.056Z,5.47
2018-04-23T09:28:40.569Z,5.43
2018-04-23T09:31:08.054Z,6.00
2018-04-23T09:33:35.633Z,5.67
2018-04-23T09:36:03.171Z,5.50
2018-04-23T09:38:30.676Z,5.83
2018-04-23T09:40:58.352Z,6.27
2018-04-23T09:43:25.947Z,6.37
2018-04-23T09:45:53.440Z,6.03
2018-04-23T09:48:21.001Z,6.30
2018-04-23T09:50:48.482Z,5.03
2018-04-23T09:53:15.959Z,5.60
2018-04-23T09:55:43.448Z,6.03
2018-04-23T09:58:10.960Z,5.67
2018-04-23T10:00:38.511Z,5.53
2018-04-23T10:03:08.769Z,5.27
2018-04-23T10:05:36.326Z,5.60
2018-04-23T10:08:03.823Z,5.33
2018-04-23T10:10:31.316Z,5.80
2018-04-23T10:12:58.804Z,5.60
2018-04-23T10:15:26.294Z,5.80
2018-04-23T10:17:53.787Z,5.43
2018-04-23T10:20:21.272Z,5.90
2018-04-23T10:22:48.764Z,5.70
2018-04-23T10:25:16.260Z,5.97
2018-04-23T10:27:43.741Z,5.90
2018-04-23T10:30:11.230Z,6.53
2018-04-23T10:32:38.731Z,5.20
2018-04-23T10:35:06.226Z,6.23
2018-04-23T10:37:33.879Z,6.27
2018-04-23T10:40:01.390Z,6.63
2018-04-23T10:42:28.916Z,5.50
2018-04-23T10:44:56.415Z,5.73
2018-04-23T10:47:23.900Z,6.43
2018-04-23T10:49:51.484Z,7.03
2018-04-23T10:52:18.975Z,6.07
2018-04-23T10:54:46.485Z,5.97
2018-04-23T10:57:13.980Z,6.20
2018-04-23T10:59:41.498Z,6.33
2018-04-23T11:02:09.003Z,5.73
2018-04-23T11:04:36.510Z,5.60
2018-04-23T11:07:04.129Z,6.80
2018-04-23T11:09:31.706Z,6.10
2018-04-23T11:11:59.252Z,6.03
2018-04-23T11:14:26.743Z,6.80
2018-04-23T11:16:54.274Z,6.37
2018-04-23T11:19:21.784Z,6.47
2018-04-23T11:21:49.275Z,6.20
2018-04-23T11:24:16.795Z,5.40
2018-04-23T11:26:44.295Z,6.73
2018-04-23T11:29:11.797Z,6.03
2018-04-23T11:31:39.301Z,5.23
2018-04-23T11:34:06.787Z,3.70
2018-04-23T11:36:34.282Z,3.00
2018-04-23T11:39:01.799Z,3.97
2018-04-23T11:41:29.409Z,4.03
2018-04-23T11:43:56.908Z,3.37
2018-04-23T11:46:24.391Z,3.37
2018-04-23T11:48:51.906Z,3.60
2018-04-23T11:51:19.499Z,3.50
2018-04-23T11:53:46.986Z,3.80
2018-04-23T11:56:14.475Z,4.37
2018-04-23T11:58:41.955Z,3.03
2018-04-23T12:01:09.438Z,2.50
2018-04-23T12:03:36.937Z,2.83
2018-04-23T12:06:04.424Z,2.83
2018-04-23T12:08:31.901Z,3.20
2018-04-23T12:10:59.435Z,3.00
2018-04-23T12:13:26.962Z,2.77
2018-04-23T12:15:54.435Z,2.77
2018-04-23T12:18:21.994Z,2.47
2018-04-23T12:20:49.476Z,2.53
2018-04-23T12:23:16.957Z,2.20
2018-04-23T12:25:44.431Z,2.13
2018-04-23T12:28:11.915Z,2.00
2018-04-23T12:30:39.425Z,1.93
2018-04-23T12:33:06.917Z,1.87
2018-04-23T12:35:34.404Z,2.27
2018-04-23T12:38:01.912Z,2.30
2018-04-23T12:40:29.412Z,2.60
2018-04-23T12:42:56.950Z,2.23
2018-04-23T12:45:24.485Z,2.67
2018-04-23T12:47:51.985Z,2.50
2018-04-23T12:50:19.481Z,2.70
2018-04-23T12:52:47.417Z,2.50
2018-04-23T12:55:14.973Z,2.63
2018-04-23T12:57:42.475Z,2.97
2018-04-23T13:00:09.976Z,2.53
2018-04-23T13:02:37.452Z,2.53
2018-04-23T13:05:04.984Z,3.90
2018-04-23T13:07:32.481Z,4.10
2018-04-23T13:09:59.964Z,2.60
2018-04-23T13:12:27.441Z,2.43
2018-04-23T13:14:54.930Z,2.33
2018-04-23T13:17:22.467Z,1.90
2018-04-23T13:19:49.963Z,2.30
2018-04-23T13:22:17.536Z,2.13
2018-04-23T13:24:45.020Z,2.00
2018-04-23T13:27:12.537Z,1.83
2018-04-23T13:29:40.018Z,1.77
2018-04-23T13:32:07.517Z,2.40
2018-04-23T13:34:35.006Z,2.53
2018-04-23T13:37:02.505Z,2.30
2018-04-23T13:39:29.988Z,3.23
2018-04-23T13:41:57.476Z,2.20
2018-04-23T13:44:24.974Z,2.20
2018-04-23T13:46:52.456Z,2.73
2018-04-23T13:49:20.093Z,2.17
2018-04-23T13:51:47.598Z,2.83
2018-04-23T13:54:15.427Z,2.30
2018-04-23T13:56:42.919Z,1.93
2018-04-23T13:59:10.416Z,2.23
2018-04-23T14:01:37.915Z,2.27
2018-04-23T14:04:05.399Z,2.60
2018-04-23T14:06:32.893Z,2.50
2018-04-23T14:09:00.384Z,2.57
2018-04-23T14:11:27.869Z,2.00
2018-04-23T14:13:55.366Z,2.20
2018-04-23T14:16:22.864Z,2.70
2018-04-23T14:18:50.353Z,2.40
2018-04-23T14:21:18.408Z,2.20
2018-04-23T14:23:45.915Z,2.50
2018-04-23T14:26:13.384Z,2.10
2018-04-23T14:28:40.888Z,2.23
2018-04-23T14:31:08.376Z,2.50
2018-04-23T14:33:35.859Z,1.90
2018-04-23T14:36:03.405Z,2.10
2018-04-23T14:38:30.924Z,2.30
2018-04-23T14:40:58.420Z,2.53
2018-04-23T14:43:25.928Z,2.60
2018-04-23T14:45:53.404Z,3.13
2018-04-23T14:48:20.893Z,3.37
2018-04-23T14:50:48.417Z,3.70
2018-04-23T14:53:16.520Z,2.37
2018-04-23T14:55:44.352Z,2.23
2018-04-23T14:58:11.907Z,3.00
2018-04-23T15:00:39.409Z,4.27
2018-04-23T15:03:07.212Z,3.30
2018-04-23T15:05:34.695Z,3.13
2018-04-23T15:08:02.172Z,4.00
2018-04-23T15:10:29.664Z,3.00
2018-04-23T15:12:57.158Z,3.03
2018-04-23T15:15:24.605Z,3.10
2018-04-23T15:17:52.110Z,3.00
2018-04-23T15:20:19.623Z,3.07
2018-04-23T15:22:47.107Z,2.40
2018-04-23T15:25:14.651Z,2.73
2018-04-23T15:27:42.142Z,3.20
2018-04-23T15:30:09.625Z,3.17
2018-04-23T15:32:37.161Z,2.67
2018-04-23T15:35:04.670Z,2.63
2018-04-23T15:37:32.158Z,2.30
2018-04-23T15:39:59.646Z,3.07
2018-04-23T15:42:27.253Z,2.60
2018-04-23T15:44:54.804Z,2.90
2018-04-23T15:47:22.287Z,2.30
2018-04-23T15:49:49.767Z,2.10
2018-04-23T15:52:17.339Z,2.23
2018-04-23T15:54:44.836Z,2.50
2018-04-23T15:57:12.828Z,2.90
2018-04-23T15:59:40.313Z,2.30
2018-04-23T16:02:07.802Z,2.20
2018-04-23T16:04:35.296Z,2.40
2018-04-23T16:07:02.785Z,2.33
2018-04-23T16:09:30.328Z,2.07
2018-04-23T16:11:57.818Z,2.10
2018-04-23T16:14:25.310Z,2.43
2018-04-23T16:16:52.806Z,3.13
2018-04-23T16:19:20.431Z,2.97
2018-04-23T16:21:48.128Z,2.10
2018-04-23T16:24:16.177Z,2.17
2018-04-23T16:26:43.668Z,2.30
2018-04-23T16:29:11.637Z,2.47
2018-04-23T16:31:39.290Z,2.80
2018-04-23T16:34:06.798Z,2.07
2018-04-23T16:36:34.312Z,2.57
2018-04-23T16:39:02.113Z,2.20
2018-04-23T16:41:29.894Z,2.10
2018-04-23T16:43:57.634Z,2.67
2018-04-23T16:46:25.881Z,2.63
2018-04-23T16:48:53.427Z,2.13
2018-04-23T16:51:21.106Z,2.47
2018-04-23T16:53:48.803Z,2.53
2018-04-23T16:56:17.197Z,2.60
2018-04-23T16:58:45.091Z,2.40
2018-04-23T17:01:12.860Z,2.63
2018-04-23T17:03:40.366Z,2.50
2018-04-23T17:06:08.008Z,1.77
2018-04-23T17:08:35.514Z,2.67
2018-04-23T17:11:03.185Z,2.33
2018-04-23T17:13:31.374Z,2.30
2018-04-23T17:15:58.867Z,2.50
2018-04-23T17:18:26.716Z,2.80
2018-04-23T17:20:54.207Z,2.20
2018-04-23T17:23:21.829Z,2.40
2018-04-23T17:25:49.352Z,2.40
2018-04-23T17:28:16.837Z,2.43
2018-04-23T17:30:44.381Z,2.50
2018-04-23T17:33:12.211Z,2.30
2018-04-23T17:35:40.340Z,2.30
2018-04-23T17:38:07.838Z,2.23
2018-04-23T17:40:35.749Z,3.10
2018-04-23T17:43:03.444Z,2.63
2018-04-23T17:45:30.957Z,4.03
2018-04-23T17:47:58.565Z,2.27
2018-04-23T17:50:26.043Z,2.23
2018-04-23T17:52:53.540Z,2.40
2018-04-23T17:55:20.979Z,2.47
2018-04-23T17:57:48.623Z,2.53
2018-04-23T18:00:16.175Z,2.40
2018-04-23T18:02:43.674Z,3.10
2018-04-23T18:05:11.707Z,2.80
2018-04-23T18:07:39.212Z,2.67
2018-04-23T18:10:06.713Z,2.67
2018-04-23T18:12:34.194Z,2.80
2018-04-23T18:15:01.633Z,2.53
2018-04-23T18:17:29.064Z,2.40
2018-04-23T18:19:56.507Z,2.40
2018-04-23T18:22:23.998Z,2.70
2018-04-23T18:24:51.451Z,2.80
2018-04-23T18:27:18.888Z,2.40
2018-04-23T18:29:46.363Z,2.53
2018-04-23T18:32:13.964Z,2.70
2018-04-23T18:34:41.766Z,2.97
2018-04-23T18:37:09.353Z,2.50
2018-04-23T18:39:36.810Z,2.23
2018-04-23T18:42:04.334Z,2.43
2018-04-23T18:44:32.032Z,2.20
2018-04-23T18:46:59.494Z,2.40
2018-04-23T18:49:26.927Z,2.80
2018-04-23T18:51:54.441Z,2.90
2018-04-23T18:54:21.883Z,2.83
2018-04-23T18:56:49.392Z,2.17
2018-04-23T18:59:16.980Z,2.20
2018-04-23T19:01:44.478Z,2.30
2018-04-23T19:04:12.241Z,2.57
2018-04-23T19:06:39.761Z,3.53
2018-04-23T19:09:08.002Z,3.10
2018-04-23T19:11:35.520Z,5.20
2018-04-23T19:14:02.987Z,2.77
2018-04-23T19:16:30.612Z,4.50
2018-04-23T19:18:58.132Z,4.70
2018-04-23T19:21:25.568Z,3.90
2018-04-23T19:23:53.116Z,3.87
2018-04-23T19:26:20.589Z,2.80
2018-04-23T19:28:48.279Z,3.13
2018-04-23T19:31:15.817Z,3.23
2018-04-23T19:33:43.361Z,4.80
2018-04-23T19:36:10.883Z,8.00
2018-04-23T19:38:38.508Z,7.53
2018-04-23T19:41:06.163Z,6.17
2018-04-23T19:43:33.711Z,4.83
2018-04-23T19:46:01.366Z,3.70
2018-04-23T19:48:28.904Z,2.77
2018-04-23T19:50:57.046Z,3.63
2018-04-23T19:53:25.107Z,3.80
2018-04-23T19:55:53.131Z,5.10
2018-04-23T19:58:20.914Z,2.60
2018-04-23T20:00:48.940Z,9.50
2018-04-23T20:03:16.831Z,3.67
2018-04-23T20:05:44.414Z,3.70
2018-04-23T20:08:12.015Z,3.40
2018-04-23T20:10:39.665Z,4.00
2018-04-23T20:13:07.420Z,3.43
2018-04-23T20:15:35.023Z,4.00
2018-04-23T20:18:02.838Z,3.33
2018-04-23T20:20:30.417Z,3.43
2018-04-23T20:22:57.902Z,3.20
2018-04-23T20:25:25.389Z,2.93
2018-04-23T20:27:52.831Z,3.03
2018-04-23T20:30:20.315Z,3.20
2018-04-23T20:32:47.829Z,3.17
2018-04-23T20:35:15.351Z,2.37
2018-04-23T20:37:42.804Z,3.17
2018-04-23T20:40:10.313Z,2.60
2018-04-23T20:42:37.744Z,3.60
2018-04-23T20:45:05.275Z,3.37
2018-04-23T20:47:32.791Z,2.70
2018-04-23T20:50:00.262Z,3.13
2018-04-23T20:52:27.936Z,2.40
2018-04-23T20:54:55.410Z,3.00
2018-04-23T20:57:22.933Z,2.90
2018-04-23T20:59:50.395Z,3.20
2018-04-23T21:02:17.868Z,3.20
2018-04-23T21:04:45.583Z,2.97
2018-04-23T21:07:13.064Z,3.03
2018-04-23T21:09:40.561Z,4.07
2018-04-23T21:12:08.042Z,3.53
2018-04-23T21:14:35.479Z,2.93
2018-04-23T21:17:03.388Z,3.40
2018-04-23T21:19:30.832Z,3.20
2018-04-23T21:21:58.256Z,2.87
2018-04-23T21:24:25.689Z,3.27
2018-04-23T21:26:53.128Z,3.03
2018-04-23T21:29:20.559Z,2.80
2018-04-23T21:31:48.048Z,3.23
2018-04-23T21:34:15.476Z,3.00
2018-04-23T21:36:42.920Z,2.50
2018-04-23T21:39:10.347Z,2.67
2018-04-23T21:41:37.844Z,2.70
2018-04-23T21:44:05.292Z,3.00
2018-04-23T21:46:32.771Z,3.00
2018-04-23T21:49:00.278Z,3.13
2018-04-23T21:51:27.752Z,3.10
2018-04-23T21:53:55.199Z,3.13
2018-04-23T21:56:22.629Z,3.00
2018-04-23T21:58:50.072Z,2.63
2018-04-23T22:01:17.572Z,3.20
2018-04-23T22:03:45.033Z,2.90
2018-04-23T22:06:12.756Z,3.17
2018-04-23T22:08:40.191Z,3.23
2018-04-23T22:11:07.759Z,3.40
2018-04-23T22:13:35.231Z,2.57
2018-04-23T22:16:02.681Z,3.00
2018-04-23T22:18:30.140Z,3.20
2018-04-23T22:20:58.156Z,3.30
2018-04-23T22:23:25.587Z,2.87
2018-04-23T22:25:53.028Z,3.33
2018-04-23T22:28:20.484Z,2.80
2018-04-23T22:30:47.968Z,2.97
2018-04-23T22:33:15.396Z,4.00
2018-04-23T22:35:42.966Z,3.43
2018-04-23T22:38:10.401Z,3.17
2018-04-23T22:40:37.947Z,3.03
2018-04-23T22:43:05.397Z,3.13
2018-04-23T22:45:32.831Z,3.63
2018-04-23T22:48:00.272Z,2.80
2018-04-23T22:50:27.754Z,3.10
2018-04-23T22:52:55.244Z,3.57
2018-04-23T22:55:22.689Z,3.00
2018-04-23T22:57:50.128Z,3.23
2018-04-23T23:00:17.635Z,3.30
2018-04-23T23:02:45.162Z,3.40
2018-04-23T23:05:12.722Z,3.50
2018-04-23T23:07:40.298Z,3.60
2018-04-23T23:10:07.804Z,3.43
2018-04-23T23:12:35.319Z,3.87
2018-04-23T23:15:02.875Z,3.03
2018-04-23T23:17:30.403Z,3.23
2018-04-23T23:19:57.910Z,3.67
2018-04-23T23:22:25.401Z,3.70
2018-04-23T23:24:53.029Z,3.80
2018-04-23T23:27:20.571Z,3.03
2018-04-23T23:29:48.053Z,3.57
2018-04-23T23:32:15.573Z,3.47
2018-04-23T23:34:43.076Z,3.80
2018-04-23T23:37:10.578Z,3.20
2018-04-23T23:39:38.092Z,3.17
2018-04-23T23:42:05.605Z,3.00
2018-04-23T23:44:33.105Z,4.50
2018-04-23T23:47:00.601Z,3.27
2018-04-23T23:49:28.245Z,3.40
2018-04-23T23:51:55.761Z,3.27
2018-04-23T23:54:23.253Z,2.73
2018-04-23T23:56:51.236Z,3.93
2018-04-23T23:59:18.773Z,2.97
